Boston, MA

11:00 PM EDT on October 17, 2018 (GMT -0400)
@ Constitution Marina Charlestown | | Change Station
Active Advisory: Wind Advisory

Elev -3 ft 42.37 °N, 71.06 °W | Updated 1 minute ago

Partly Cloudy
Partly Cloudy
46.9 °F
Feels Like 45 °F
N
4.9
Wind Variable Wind from WNW
Gusts 5.8 mph

Today
High -- | Low -- °F
--% Chance of Precip.
Yesterday
High -- | Low -- °F
Precip. -- in
Pressure 29.86 in
Visibility 10.0 miles
Clouds Few 6000 ft
Few 12000 ft
Windchill 45 °F
Dew Point 35 °F
Humidity 63%
Rainfall 0.00 in
Snow Depth Not available.
6:59 AM 5:59 PM
Waxing Gibbous, 63% visible
METAR KBOS 172354Z 28017G26KT 10SM FEW060 FEW120 11/02 A2986 RMK AO2 PK WND 27026/2346 SLP110 60000 T01110017 10172 20111 51033
Pressure 29.86 in
Visibility 10.0 miles
Clouds Few 6000 ft
Few 12000 ft
Windchill 45 °F
Dew Point 35 °F
Humidity 63%
Rainfall 0.00 in
Snow Depth Not available.
6:59 AM 5:59 PM
Waxing Gibbous, 63% visible
METAR KBOS 172354Z 28017G26KT 10SM FEW060 FEW120 11/02 A2986 RMK AO2 PK WND 27026/2346 SLP110 60000 T01110017 10172 20111 51033

Get Your Daily Forecast Email!

Thanks for signing up!

Be on the lookout for a verification email in your inbox.

You'll start receiving severe weather alerts in your inbox..

×

10-Day Weather Forecast

Almanac

Astronomy

Oct. 17, 2018 Rise Set
Actual Time
Civil Twilight
Nautical Twilight
Astronomical Twilight
Moon
Length of Visible Light
Length of Day
Tomorrow will be .
, % of the Moon is Illuminated

Today's Extremes

State Highs State Lows

Community

WunderPhotos

Category 6

Welcome to Category 6. This is the collective home for Weather Underground's featured writeups by Dr. Jeff Masters (right), Bob Henson (left), Chris Burt, and other regular contributors.

Nearby

Air Quality

  Air Quality AQ Index Pollutant
Not available.

Snow Depth

Station Depth Elevation

Earthquake Activity

City Distance Mag. Time & Date
Minimum magnitude displayed is 2.5.

Coastal Water Temperatures

Place Temperature

Stations

Nearby Weather Stations

Station Location Temp. Windchill Dew Point Humidity Wind Precip. Elev Updated Type
                   

Watches & Warnings

Wind Advisory
Issued: 9:46 PM EDT Oct. 17, 2018 – National Weather Service

... Wind Advisory now in effect until 10 am EDT Thursday...

* winds... northwest 15 to 25 mph with gusts up to 45 mph.

* Timing... strongest winds will occur after midnight until about
daybreak.

* Impacts... strong winds may knock down a few trees, large tree
limbs and result in isolated power outages.

* Location... coastal northeast Massachusetts, including Boston.

Precautionary/preparedness actions...

A Wind Advisory means that sustained winds of 31 to 39 mph are
expected, with gusts between 46 to 57 mph. Winds this strong are
capable of Downing small tree limbs and branches, possibly
causing isolated power outages. Driving can also be difficult,
especially for high profile vehicles. Use extra caution.